Time;durP1;ratioP1;P1;durP2;ratioP2;P2;SDS_P1;SDS_P2;PMS_P1;PMS_P2;Temp;Humidity;BMP_temperature;BMP_pressure;BME280_temperature;BME280_humidity;BME280_pressure;Samples;Min_cycle;Max_cycle;Signal;HPM_P1;HPM_P2
2023/06/05 00:01:55;;;;;;;15.88;7.30;;;;;;;;;;6212068;23;20002;-82
2023/06/05 00:04:21;;;;;;;20.27;7.10;;;;;;;;;;6187554;23;20011;-83
2023/06/05 00:06:47;;;;;;;17.90;7.15;;;;;;;;;;6213641;23;20054;-82
2023/06/05 00:09:13;;;;;;;21.05;7.50;;;;;;;;;;6212121;23;20011;-83
2023/06/05 00:11:39;;;;;;;20.48;7.63;;;;;;;;;;6186705;23;20007;-83
2023/06/05 00:14:05;;;;;;;15.20;7.30;;;;;;;;;;6187447;23;20009;-83
2023/06/05 00:16:31;;;;;;;17.83;7.45;;;;;;;;;;6212214;23;20024;-83
2023/06/05 00:18:57;;;;;;;16.00;6.80;;;;;;;;;;6161884;23;20008;-82
2023/06/05 00:21:24;;;;;;;15.43;7.65;;;;;;;;;;6212441;23;20001;-82
2023/06/05 00:23:50;;;;;;;21.45;7.40;;;;;;;;;;6211723;23;20008;-83
2023/06/05 00:26:15;;;;;;;19.42;7.55;;;;;;;;;;6186908;23;20004;-83
2023/06/05 00:28:41;;;;;;;17.65;6.90;;;;;;;;;;6212112;23;20066;-83
2023/06/05 00:31:06;;;;;;;15.77;7.10;;;;;;;;;;6213357;23;20285;-83
2023/06/05 00:33:32;;;;;;;14.93;7.15;;;;;;;;;;6212115;23;20125;-82
2023/06/05 00:35:57;;;;;;;17.80;7.55;;;;;;;;;;6186817;23;20043;-82
2023/06/05 00:38:23;;;;;;;16.45;8.00;;;;;;;;;;6186816;23;20510;-82
2023/06/05 00:40:48;;;;;;;16.90;7.43;;;;;;;;;;6186513;23;20011;-82
2023/06/05 00:43:13;;;;;;;18.42;8.55;;;;;;;;;;6162222;23;20005;-83
2023/06/05 00:45:39;;;;;;;20.38;8.50;;;;;;;;;;6211757;23;20004;-83
2023/06/05 00:48:04;;;;;;;21.02;7.70;;;;;;;;;;6211832;23;20135;-83
2023/06/05 00:50:32;;;;;;;15.52;8.07;;;;;;;;;;6186607;23;20036;-83
2023/06/05 00:52:57;;;;;;;21.63;8.65;;;;;;;;;;6162572;23;20032;-83
2023/06/05 00:55:23;;;;;;;18.92;8.40;;;;;;;;;;6161853;23;20007;-82
2023/06/05 00:57:48;;;;;;;18.23;7.70;;;;;;;;;;6186366;23;20032;-83
2023/06/05 01:00:14;;;;;;;22.30;7.78;;;;;;;;;;6186938;23;20001;-82
2023/06/05 01:02:40;;;;;;;17.70;7.55;;;;;;;;;;6186891;23;20137;-84
2023/06/05 01:05:06;;;;;;;18.13;7.88;;;;;;;;;;6212013;23;20005;-84
2023/06/05 01:07:32;;;;;;;19.58;7.95;;;;;;;;;;6186887;23;20020;-84
2023/06/05 01:10:01;;;;;;;14.88;8.02;;;;;;;;;;6186403;23;19996;-82
2023/06/05 01:12:31;;;;;;;20.35;8.05;;;;;;;;;;6186452;23;20001;-82
2023/06/05 01:14:59;;;;;;;24.13;8.43;;;;;;;;;;6187622;23;20074;-83
2023/06/05 01:17:28;;;;;;;15.88;7.93;;;;;;;;;;6187700;23;20024;-83
2023/06/05 01:19:54;;;;;;;25.17;8.63;;;;;;;;;;6211600;23;20439;-82
2023/06/05 01:22:20;;;;;;;23.75;9.95;;;;;;;;;;6161073;23;20009;-83
2023/06/05 01:24:47;;;;;;;22.52;9.57;;;;;;;;;;6186381;23;20009;-83
2023/06/05 01:27:40;;;;;;;29.42;9.68;;;;;;;;;;6162397;23;20013;-83
2023/06/05 01:30:24;;;;;;;26.95;10.57;;;;;;;;;;6163814;23;20005;-83
2023/06/05 01:32:53;;;;;;;28.70;10.48;;;;;;;;;;6187892;23;20567;-83
2023/06/05 01:35:20;;;;;;;25.45;10.27;;;;;;;;;;6186774;23;20486;-82
2023/06/05 01:37:48;;;;;;;27.65;11.45;;;;;;;;;;6186525;23;20004;-83
2023/06/05 01:40:15;;;;;;;21.55;9.95;;;;;;;;;;6186462;23;20101;-83
2023/06/05 01:42:41;;;;;;;26.27;11.15;;;;;;;;;;6162223;23;20084;-83
2023/06/05 01:45:08;;;;;;;25.02;10.68;;;;;;;;;;6186598;23;20009;-83
2023/06/05 01:47:35;;;;;;;29.15;11.50;;;;;;;;;;6211854;23;20070;-83
2023/06/05 01:50:00;;;;;;;22.45;10.80;;;;;;;;;;6187015;23;20039;-82
2023/06/05 01:52:25;;;;;;;23.17;10.65;;;;;;;;;;6162019;23;20364;-82
2023/06/05 01:54:52;;;;;;;23.10;10.93;;;;;;;;;;6186122;23;20432;-82
2023/06/05 01:57:18;;;;;;;29.38;10.98;;;;;;;;;;6211359;23;20444;-82
2023/06/05 01:59:45;;;;;;;20.92;10.45;;;;;;;;;;6161665;23;20062;-82
2023/06/05 02:02:11;;;;;;;25.75;10.85;;;;;;;;;;6186862;23;20011;-83
2023/06/05 02:04:37;;;;;;;29.35;10.80;;;;;;;;;;6186528;23;20013;-83
2023/06/05 02:07:05;;;;;;;29.58;11.27;;;;;;;;;;6161839;23;20393;-83
2023/06/05 02:09:33;;;;;;;26.73;10.63;;;;;;;;;;6186547;23;20011;-82
2023/06/05 02:12:03;;;;;;;32.53;11.38;;;;;;;;;;6186915;23;20440;-82
2023/06/05 02:14:32;;;;;;;28.05;11.88;;;;;;;;;;6211340;23;20373;-82
2023/06/05 02:16:58;;;;;;;29.90;12.75;;;;;;;;;;6211319;23;20009;-82
2023/06/05 02:19:24;;;;;;;28.95;12.07;;;;;;;;;;6211462;23;20450;-82
2023/06/05 02:21:51;;;;;;;30.55;11.43;;;;;;;;;;6186282;23;20008;-82
2023/06/05 02:24:18;;;;;;;36.53;12.65;;;;;;;;;;6162372;23;20445;-82
2023/06/05 02:26:44;;;;;;;54.92;20.92;;;;;;;;;;6213130;23;20004;-82
2023/06/05 02:29:09;;;;;;;59.65;25.40;;;;;;;;;;6188022;23;20031;-81
2023/06/05 02:31:36;;;;;;;58.80;26.45;;;;;;;;;;6188267;23;20036;-81
2023/06/05 02:34:02;;;;;;;60.78;25.58;;;;;;;;;;6212984;23;20450;-81
2023/06/05 02:36:27;;;;;;;47.67;21.90;;;;;;;;;;6212779;23;20004;-82
2023/06/05 02:38:53;;;;;;;54.88;21.60;;;;;;;;;;6214518;23;20399;-82
2023/06/05 02:41:18;;;;;;;38.72;19.67;;;;;;;;;;6213199;23;20348;-82
2023/06/05 02:43:44;;;;;;;44.45;20.02;;;;;;;;;;6212683;23;20000;-81
2023/06/05 02:46:10;;;;;;;41.00;20.42;;;;;;;;;;6212900;23;19997;-82
2023/06/05 02:48:36;;;;;;;40.47;18.65;;;;;;;;;;6163518;23;20015;-82
2023/06/05 02:51:03;;;;;;;35.15;14.55;;;;;;;;;;6163100;23;20008;-81
2023/06/05 02:53:28;;;;;;;33.78;14.43;;;;;;;;;;6188789;23;20000;-81
2023/06/05 02:55:55;;;;;;;29.13;13.70;;;;;;;;;;6188229;23;20427;-81
2023/06/05 02:58:21;;;;;;;34.15;13.38;;;;;;;;;;6212586;23;20004;-81
2023/06/05 03:00:47;;;;;;;33.17;14.52;;;;;;;;;;6187859;23;20008;-82
2023/06/05 03:03:16;;;;;;;34.58;14.27;;;;;;;;;;6212845;23;20356;-82
2023/06/05 03:05:42;;;;;;;28.60;12.35;;;;;;;;;;6164146;23;20008;-83
2023/06/05 03:08:08;;;;;;;25.40;12.50;;;;;;;;;;6212807;23;20075;-83
2023/06/05 03:10:33;;;;;;;33.67;13.10;;;;;;;;;;6162719;23;20019;-82
2023/06/05 03:12:59;;;;;;;30.40;11.95;;;;;;;;;;6187677;23;20001;-83
2023/06/05 03:15:24;;;;;;;30.70;12.38;;;;;;;;;;6212672;23;20000;-83
2023/06/05 03:17:50;;;;;;;21.45;11.30;;;;;;;;;;6213083;23;20001;-82
2023/06/05 03:20:17;;;;;;;33.75;10.75;;;;;;;;;;6212613;23;20071;-83
2023/06/05 03:22:43;;;;;;;21.58;10.07;;;;;;;;;;6187829;23;20000;-82
2023/06/05 03:25:09;;;;;;;28.17;11.15;;;;;;;;;;6187380;23;20166;-82
2023/06/05 03:27:35;;;;;;;36.17;11.63;;;;;;;;;;6212090;23;20405;-82
2023/06/05 03:30:01;;;;;;;22.70;9.85;;;;;;;;;;6212447;23;20082;-82
2023/06/05 03:32:27;;;;;;;24.35;9.27;;;;;;;;;;6212746;23;20005;-82
2023/06/05 03:34:52;;;;;;;22.08;10.07;;;;;;;;;;6213715;23;20079;-83
2023/06/05 03:37:18;;;;;;;19.95;9.88;;;;;;;;;;6188208;23;20011;-83
2023/06/05 03:39:43;;;;;;;23.10;9.77;;;;;;;;;;6214527;23;20028;-82
2023/06/05 03:42:11;;;;;;;24.55;10.40;;;;;;;;;;6187380;23;20023;-82
2023/06/05 03:44:37;;;;;;;18.95;9.45;;;;;;;;;;6187853;23;20437;-83
2023/06/05 03:47:03;;;;;;;27.77;9.60;;;;;;;;;;6187508;23;20004;-83
2023/06/05 03:49:29;;;;;;;23.98;9.77;;;;;;;;;;6212216;23;20070;-82
2023/06/05 03:52:00;;;;;;;19.15;9.18;;;;;;;;;;6187734;23;20032;-82
2023/06/05 03:54:27;;;;;;;24.60;10.15;;;;;;;;;;6168957;23;20012;-82
2023/06/05 03:56:55;;;;;;;22.20;8.85;;;;;;;;;;6195169;23;20012;-81
2023/06/05 03:59:22;;;;;;;27.77;9.45;;;;;;;;;;6169196;23;19997;-83
2023/06/05 04:01:48;;;;;;;16.48;8.98;;;;;;;;;;6173045;23;20004;-82
2023/06/05 04:04:13;;;;;;;21.00;9.02;;;;;;;;;;6223168;23;20008;-82
2023/06/05 04:06:40;;;;;;;19.20;9.02;;;;;;;;;;6225477;23;20012;-82
2023/06/05 04:09:10;;;;;;;19.45;9.55;;;;;;;;;;6188527;23;20027;-82
2023/06/05 04:11:40;;;;;;;17.35;8.15;;;;;;;;;;6188338;23;20009;-83
2023/06/05 04:14:05;;;;;;;18.88;9.07;;;;;;;;;;6186566;23;20475;-84
2023/06/05 04:16:31;;;;;;;18.83;8.63;;;;;;;;;;6187789;23;20008;-82
2023/06/05 04:18:56;;;;;;;16.00;9.10;;;;;;;;;;6187339;23;20004;-83
2023/06/05 04:21:22;;;;;;;22.10;8.38;;;;;;;;;;6212173;23;20004;-83
2023/06/05 04:23:47;;;;;;;29.08;9.15;;;;;;;;;;6187093;23;20043;-83
2023/06/05 04:26:17;;;;;;;25.00;9.85;;;;;;;;;;6187351;23;20353;-82
2023/06/05 04:28:43;;;;;;;23.20;10.57;;;;;;;;;;6185821;23;20096;-83
2023/06/05 04:31:09;;;;;;;24.90;9.40;;;;;;;;;;6163410;23;20009;-81
2023/06/05 04:33:34;;;;;;;24.83;11.25;;;;;;;;;;6186716;23;20007;-81
2023/06/05 04:36:00;;;;;;;22.55;10.32;;;;;;;;;;6213231;23;20008;-83
2023/06/05 04:38:25;;;;;;;24.33;10.07;;;;;;;;;;6186840;23;20019;-81
2023/06/05 04:40:53;;;;;;;20.05;9.63;;;;;;;;;;6211785;23;20008;-80
2023/06/05 04:43:19;;;;;;;20.88;9.10;;;;;;;;;;6211209;23;20005;-80
2023/06/05 04:45:45;;;;;;;27.33;9.40;;;;;;;;;;6210856;23;20012;-80
2023/06/05 04:48:11;;;;;;;16.83;9.10;;;;;;;;;;6213604;23;20408;-79
2023/06/05 04:50:37;;;;;;;18.27;9.02;;;;;;;;;;6187783;23;20131;-80
2023/06/05 04:53:03;;;;;;;25.88;9.02;;;;;;;;;;6213904;23;20336;-79
2023/06/05 04:55:28;;;;;;;14.93;7.82;;;;;;;;;;6212549;23;20008;-79
2023/06/05 04:57:54;;;;;;;27.42;8.50;;;;;;;;;;6212540;23;20008;-78
2023/06/05 05:00:19;;;;;;;20.75;8.60;;;;;;;;;;6206129;23;20004;-78
2023/06/05 05:02:45;;;;;;;21.67;8.30;;;;;;;;;;6203746;23;20455;-78
2023/06/05 05:05:13;;;;;;;15.25;7.10;;;;;;;;;;6206489;23;20012;-79
2023/06/05 05:07:40;;;;;;;17.05;7.35;;;;;;;;;;6204505;23;20012;-78
2023/06/05 05:10:08;;;;;;;15.35;7.68;;;;;;;;;;6206169;23;20012;-80
2023/06/05 05:12:33;;;;;;;19.13;7.25;;;;;;;;;;6205943;23;20653;-78
2023/06/05 05:15:12;;;;;;;13.13;7.28;;;;;;;;;;6206844;23;20004;-82
2023/06/05 05:17:38;;;;;;;19.17;8.55;;;;;;;;;;6205887;23;20009;-81
2023/06/05 05:20:06;;;;;;;18.33;8.07;;;;;;;;;;6210022;23;20094;-80
2023/06/05 05:22:31;;;;;;;28.13;8.20;;;;;;;;;;6208144;23;20004;-82
2023/06/05 05:24:57;;;;;;;17.33;7.75;;;;;;;;;;6207833;23;20061;-81
2023/06/05 05:27:24;;;;;;;19.27;7.97;;;;;;;;;;6209030;23;20165;-81
2023/06/05 05:29:49;;;;;;;22.02;7.78;;;;;;;;;;6207986;23;20449;-80
2023/06/05 05:32:15;;;;;;;16.35;7.38;;;;;;;;;;6205162;23;20083;-82
2023/06/05 05:34:41;;;;;;;17.00;7.28;;;;;;;;;;6208795;23;20008;-80
2023/06/05 05:37:06;;;;;;;17.35;7.65;;;;;;;;;;6209839;23;20014;-79
2023/06/05 05:39:32;;;;;;;20.63;6.95;;;;;;;;;;6210995;23;20005;-80
2023/06/05 05:41:59;;;;;;;15.65;7.63;;;;;;;;;;6211169;23;20008;-81
2023/06/05 05:44:25;;;;;;;18.92;7.45;;;;;;;;;;6212100;23;20013;-83
2023/06/05 05:46:50;;;;;;;17.15;6.45;;;;;;;;;;6213793;23;20347;-80
2023/06/05 05:49:16;;;;;;;16.20;7.15;;;;;;;;;;6208293;23;20039;-80
2023/06/05 05:51:41;;;;;;;25.10;7.28;;;;;;;;;;6205502;23;20112;-79
2023/06/05 05:54:07;;;;;;;17.48;6.30;;;;;;;;;;6210167;23;20085;-79
2023/06/05 05:56:34;;;;;;;15.30;5.38;;;;;;;;;;6208015;23;20016;-78
2023/06/05 05:58:59;;;;;;;14.98;5.90;;;;;;;;;;6208809;23;20008;-80
2023/06/05 06:01:25;;;;;;;12.18;6.05;;;;;;;;;;6209867;23;20335;-78
2023/06/05 06:04:03;;;;;;;11.32;6.00;;;;;;;;;;6212925;23;20011;-79
2023/06/05 06:06:29;;;;;;;10.90;5.35;;;;;;;;;;6177493;23;20005;-79
2023/06/05 06:08:55;;;;;;;18.02;6.82;;;;;;;;;;6180445;23;20435;-80
2023/06/05 06:11:20;;;;;;;21.40;6.28;;;;;;;;;;6179107;23;20011;-80
2023/06/05 06:13:46;;;;;;;12.82;5.43;;;;;;;;;;6177643;23;20001;-80
2023/06/05 06:16:12;;;;;;;11.85;5.70;;;;;;;;;;6177906;23;20009;-80
2023/06/05 06:18:37;;;;;;;14.20;5.32;;;;;;;;;;6180197;23;19997;-80
2023/06/05 06:21:04;;;;;;;10.50;5.70;;;;;;;;;;6181442;23;20008;-79
2023/06/05 06:23:30;;;;;;;13.48;5.53;;;;;;;;;;6180263;23;20009;-81
2023/06/05 06:25:56;;;;;;;10.38;5.35;;;;;;;;;;6180978;23;20009;-80
2023/06/05 06:28:22;;;;;;;13.85;5.85;;;;;;;;;;6180548;23;20005;-80
2023/06/05 06:30:48;;;;;;;15.27;5.05;;;;;;;;;;6183422;23;20001;-80
2023/06/05 06:33:14;;;;;;;18.90;5.68;;;;;;;;;;6180704;23;20435;-81
2023/06/05 06:35:39;;;;;;;9.07;4.72;;;;;;;;;;6182886;23;20032;-80
2023/06/05 06:38:05;;;;;;;10.77;5.00;;;;;;;;;;6183045;23;20005;-81
2023/06/05 06:40:32;;;;;;;13.07;5.35;;;;;;;;;;6183732;23;20008;-81
2023/06/05 06:42:58;;;;;;;11.15;4.35;;;;;;;;;;6182332;23;20009;-81
2023/06/05 06:45:23;;;;;;;8.70;4.93;;;;;;;;;;6183902;23;20698;-80
2023/06/05 06:47:49;;;;;;;9.75;4.72;;;;;;;;;;6182350;23;20008;-81
2023/06/05 06:50:14;;;;;;;8.63;4.70;;;;;;;;;;6181323;23;20078;-80
2023/06/05 06:52:43;;;;;;;11.55;5.20;;;;;;;;;;6178432;23;20001;-78
2023/06/05 06:55:09;;;;;;;8.77;4.93;;;;;;;;;;6176766;23;20031;-81
2023/06/05 06:57:34;;;;;;;7.50;5.03;;;;;;;;;;6177903;23;20448;-81
2023/06/05 07:00:00;;;;;;;11.25;4.65;;;;;;;;;;6180689;23;20095;-82
2023/06/05 07:02:29;;;;;;;5.90;4.70;;;;;;;;;;6178573;23;20112;-81
2023/06/05 07:04:54;;;;;;;12.23;4.40;;;;;;;;;;6180042;23;20001;-82
2023/06/05 07:07:21;;;;;;;11.13;4.45;;;;;;;;;;6181308;23;20020;-79
2023/06/05 07:09:49;;;;;;;7.25;4.35;;;;;;;;;;6181565;23;20010;-81
2023/06/05 07:12:15;;;;;;;7.05;4.65;;;;;;;;;;6179269;23;20088;-79
2023/06/05 07:14:40;;;;;;;9.18;4.40;;;;;;;;;;6181484;23;20016;-78
2023/06/05 07:17:06;;;;;;;10.40;5.50;;;;;;;;;;6155033;23;20001;-81
2023/06/05 07:19:32;;;;;;;8.95;4.75;;;;;;;;;;6180077;23;20005;-79
2023/06/05 07:21:58;;;;;;;13.45;5.00;;;;;;;;;;6182237;23;20008;-80
2023/06/05 07:24:24;;;;;;;11.45;4.60;;;;;;;;;;6180541;23;20079;-82
2023/06/05 07:26:53;;;;;;;8.27;4.28;;;;;;;;;;6156134;23;20001;-80
2023/06/05 07:29:19;;;;;;;;;;;;;;;;;;6181737;23;20024;-80
2023/06/05 07:31:46;;;;;;;11.50;4.88;;;;;;;;;;6180981;23;19994;-81
2023/06/05 07:34:12;;;;;;;11.07;4.47;;;;;;;;;;6155318;23;20056;-79
2023/06/05 07:36:38;;;;;;;7.53;4.38;;;;;;;;;;6177761;23;20009;-80
2023/06/05 07:39:04;;;;;;;11.60;4.38;;;;;;;;;;6155047;23;20012;-83
2023/06/05 07:41:30;;;;;;;7.78;4.13;;;;;;;;;;6131640;23;20005;-82
2023/06/05 07:43:55;;;;;;;7.05;4.03;;;;;;;;;;6182092;23;20449;-81
2023/06/05 07:46:56;;;;;;;8.05;3.90;;;;;;;;;;6183046;23;20056;-81
2023/06/05 07:49:24;;;;;;;7.80;3.92;;;;;;;;;;6123463;23;20095;-84
2023/06/05 07:51:50;;;;;;;7.75;4.40;;;;;;;;;;6182722;23;20025;-82
2023/06/05 07:54:51;;;;;;;5.90;3.90;;;;;;;;;;6182748;23;20273;-82
2023/06/05 07:57:17;;;;;;;6.57;4.05;;;;;;;;;;6185442;23;20593;-81
2023/06/05 07:59:43;;;;;;;7.88;4.30;;;;;;;;;;6154993;23;20008;-80
2023/06/05 08:02:08;;;;;;;8.38;4.38;;;;;;;;;;6153183;23;20055;-81
2023/06/05 08:04:35;;;;;;;13.48;4.10;;;;;;;;;;6179703;23;20041;-82
2023/06/05 08:07:01;;;;;;;6.75;4.05;;;;;;;;;;6181095;23;20005;-81
2023/06/05 08:09:27;;;;;;;7.00;4.35;;;;;;;;;;6183022;23;20005;-80
2023/06/05 08:11:52;;;;;;;4.72;3.55;;;;;;;;;;6184925;23;20123;-80
2023/06/05 08:14:18;;;;;;;10.52;3.97;;;;;;;;;;6180942;23;20423;-82
2023/06/05 08:16:43;;;;;;;7.18;4.50;;;;;;;;;;6183395;23;20008;-80
2023/06/05 08:19:10;;;;;;;10.65;4.28;;;;;;;;;;6185579;23;20487;-82
2023/06/05 08:21:36;;;;;;;6.43;4.47;;;;;;;;;;6181627;23;19997;-81
2023/06/05 08:24:04;;;;;;;6.75;4.15;;;;;;;;;;6188026;23;20301;-81
2023/06/05 08:26:30;;;;;;;6.43;3.78;;;;;;;;;;6183998;23;20012;-82
2023/06/05 08:28:57;;;;;;;8.32;4.13;;;;;;;;;;6158144;23;20001;-82
2023/06/05 08:31:23;;;;;;;6.18;3.97;;;;;;;;;;6187403;23;20361;-82
2023/06/05 08:33:49;;;;;;;6.55;4.05;;;;;;;;;;6182324;23;20005;-82
2023/06/05 08:36:16;;;;;;;5.20;3.97;;;;;;;;;;6157959;23;20551;-81
2023/06/05 08:38:42;;;;;;;9.05;4.28;;;;;;;;;;6180078;23;20001;-82
2023/06/05 08:41:15;;;;;;;6.90;4.32;;;;;;;;;;6182075;23;20036;-81
2023/06/05 08:43:41;;;;;;;10.63;4.50;;;;;;;;;;6157201;23;20029;-82
2023/06/05 08:46:08;;;;;;;8.23;4.70;;;;;;;;;;6157687;23;20352;-81
2023/06/05 08:48:37;;;;;;;7.82;4.25;;;;;;;;;;6157435;23;20009;-80
2023/06/05 08:51:03;;;;;;;6.82;4.10;;;;;;;;;;6182639;23;20001;-81
2023/06/05 08:53:32;;;;;;;8.90;3.53;;;;;;;;;;6181075;23;20013;-82
2023/06/05 08:56:00;;;;;;;7.43;4.13;;;;;;;;;;6179498;23;20095;-82
2023/06/05 08:58:28;;;;;;;6.38;4.10;;;;;;;;;;6153185;23;20549;-82
2023/06/05 09:00:54;;;;;;;5.93;3.95;;;;;;;;;;6126222;23;20080;-82
2023/06/05 09:03:20;;;;;;;6.03;3.88;;;;;;;;;;6151099;23;20001;-82
2023/06/05 09:05:48;;;;;;;8.70;3.80;;;;;;;;;;6152870;23;20012;-82
2023/06/05 09:08:19;;;;;;;6.45;3.80;;;;;;;;;;6153286;23;20009;-83
2023/06/05 09:10:44;;;;;;;6.38;3.72;;;;;;;;;;6102514;23;20009;-82
2023/06/05 09:13:10;;;;;;;4.72;3.33;;;;;;;;;;6150677;23;20002;-81
2023/06/05 09:15:38;;;;;;;7.28;3.38;;;;;;;;;;6124620;23;20005;-82
2023/06/05 09:18:10;;;;;;;7.00;3.88;;;;;;;;;;6102928;23;20048;-82
2023/06/05 09:20:37;;;;;;;6.30;3.60;;;;;;;;;;6127468;23;20012;-82
2023/06/05 09:23:05;;;;;;;7.07;3.40;;;;;;;;;;6101120;23;20370;-81
2023/06/05 09:25:48;;;;;;;8.20;3.30;;;;;;;;;;6102070;23;20009;-82
2023/06/05 09:28:14;;;;;;;6.20;3.42;;;;;;;;;;6079520;23;20440;-80
2023/06/05 09:31:00;;;;;;;5.95;3.20;;;;;;;;;;6128403;23;20005;-82
2023/06/05 09:33:31;;;;;;;7.82;3.50;;;;;;;;;;6128555;23;20008;-82
2023/06/05 09:36:06;;;;;;;8.30;3.53;;;;;;;;;;6105720;23;20016;-82
2023/06/05 09:38:31;;;;;;;5.10;3.42;;;;;;;;;;6152548;23;20033;-82
2023/06/05 09:41:10;;;;;;;11.52;3.80;;;;;;;;;;6080184;23;20357;-81
2023/06/05 09:43:36;;;;;;;7.30;3.90;;;;;;;;;;6153076;23;20419;-83
2023/06/05 09:46:12;;;;;;;9.80;3.40;;;;;;;;;;6103438;23;20017;-80
2023/06/05 09:48:40;;;;;;;8.02;4.00;;;;;;;;;;6128177;23;20382;-82
2023/06/05 09:51:17;;;;;;;7.20;3.53;;;;;;;;;;6130982;23;20028;-81
2023/06/05 09:53:47;;;;;;;6.20;4.10;;;;;;;;;;6155043;23;20002;-80
2023/06/05 09:56:14;;;;;;;8.73;3.25;;;;;;;;;;6155162;23;20018;-79
2023/06/05 09:58:47;;;;;;;10.80;3.70;;;;;;;;;;6179542;23;20321;-82
2023/06/05 10:01:17;;;;;;;6.65;3.78;;;;;;;;;;6178650;23;20009;-81
2023/06/05 10:03:46;;;;;;;8.38;3.83;;;;;;;;;;6178905;23;20001;-80
2023/06/05 10:06:11;;;;;;;5.88;3.70;;;;;;;;;;6179979;23;20004;-81
2023/06/05 10:08:37;;;;;;;10.88;4.07;;;;;;;;;;6179159;23;20011;-82
2023/06/05 10:11:02;;;;;;;7.10;3.55;;;;;;;;;;6178727;23;20113;-81
2023/06/05 10:13:28;;;;;;;5.47;3.60;;;;;;;;;;6157680;23;20001;-79
2023/06/05 10:15:53;;;;;;;7.25;4.03;;;;;;;;;;6181808;23;20005;-79
2023/06/05 10:18:19;;;;;;;6.10;3.60;;;;;;;;;;6180420;23;20514;-81
2023/06/05 10:20:45;;;;;;;9.65;3.60;;;;;;;;;;6157693;23;20072;-81
2023/06/05 10:23:10;;;;;;;7.40;3.53;;;;;;;;;;6159894;23;20001;-81
2023/06/05 10:25:36;;;;;;;9.13;3.80;;;;;;;;;;6180163;23;20013;-81
2023/06/05 10:28:16;;;;;;;4.78;3.30;;;;;;;;;;6179762;23;19997;-81
2023/06/05 10:31:06;;;;;;;8.77;3.45;;;;;;;;;;6180751;23;20055;-79
2023/06/05 10:33:47;;;;;;;4.90;3.40;;;;;;;;;;6181746;23;20005;-79
2023/06/05 10:36:40;;;;;;;4.25;3.35;;;;;;;;;;6179842;23;20203;-81
2023/06/05 10:39:09;;;;;;;8.52;4.07;;;;;;;;;;6182210;23;20340;-79
2023/06/05 10:41:35;;;;;;;4.45;3.55;;;;;;;;;;6179475;23;20006;-80
2023/06/05 10:44:00;;;;;;;5.80;3.50;;;;;;;;;;6179391;23;20005;-80
2023/06/05 10:46:37;;;;;;;5.95;3.53;;;;;;;;;;6177154;23;20427;-79
2023/06/05 10:49:15;;;;;;;5.45;3.70;;;;;;;;;;6179977;23;20006;-79
2023/06/05 10:51:45;;;;;;;5.55;3.35;;;;;;;;;;6179167;23;20004;-80
2023/06/05 10:54:23;;;;;;;7.63;3.95;;;;;;;;;;6178853;23;20440;-79
2023/06/05 10:56:56;;;;;;;5.65;3.28;;;;;;;;;;6179925;23;20009;-80
2023/06/05 10:59:23;;;;;;;4.80;3.60;;;;;;;;;;6153858;23;20012;-81
2023/06/05 11:02:08;;;;;;;4.50;3.65;;;;;;;;;;6177900;23;20008;-80
2023/06/05 11:04:59;;;;;;;6.20;3.65;;;;;;;;;;6179799;23;20025;-80
2023/06/05 11:07:25;;;;;;;6.78;4.05;;;;;;;;;;6167359;23;20009;-80
2023/06/05 11:12:40;;;;;;;5.85;3.72;;;;;;;;;;6180129;23;20009;-81
2023/06/05 11:15:07;;;;;;;7.75;4.05;;;;;;;;;;6180109;23;20009;-82
2023/06/05 11:17:34;;;;;;;11.10;3.92;;;;;;;;;;6181413;23;20001;-81
2023/06/05 11:20:00;;;;;;;5.95;3.72;;;;;;;;;;6180992;23;20420;-82
2023/06/05 11:22:26;;;;;;;7.13;3.83;;;;;;;;;;6178583;23;20012;-82
2023/06/05 11:25:16;;;;;;;4.55;3.72;;;;;;;;;;6176444;23;20089;-80
2023/06/05 11:27:46;;;;;;;5.65;3.67;;;;;;;;;;6176900;23;20372;-80
2023/06/05 11:30:12;;;;;;;;;;;;;;;;;;6175975;23;20024;-82
2023/06/05 11:32:37;;;;;;;9.32;4.43;;;;;;;;;;6177273;23;19978;-80
2023/06/05 11:35:03;;;;;;;9.05;4.22;;;;;;;;;;6176312;23;20005;-82
2023/06/05 11:37:29;;;;;;;5.25;3.90;;;;;;;;;;6152242;23;20009;-83
2023/06/05 11:39:54;;;;;;;5.88;4.05;;;;;;;;;;6178936;23;20001;-83
2023/06/05 11:42:23;;;;;;;6.25;3.75;;;;;;;;;;6154329;23;20400;-82
2023/06/05 11:44:48;;;;;;;5.77;4.00;;;;;;;;;;6178545;23;20001;-83
2023/06/05 11:47:28;;;;;;;7.63;3.92;;;;;;;;;;6179233;23;20043;-81
2023/06/05 11:49:53;;;;;;;10.35;4.68;;;;;;;;;;6178892;23;20028;-82
2023/06/05 11:52:20;;;;;;;5.45;4.32;;;;;;;;;;6181141;23;20445;-80
2023/06/05 11:54:53;;;;;;;7.53;4.53;;;;;;;;;;6181182;23;20001;-81
2023/06/05 11:57:18;;;;;;;9.75;4.55;;;;;;;;;;6181060;23;20472;-81
2023/06/05 11:59:44;;;;;;;8.35;4.50;;;;;;;;;;6180493;23;20005;-80
2023/06/05 12:02:10;;;;;;;8.70;4.72;;;;;;;;;;6182561;23;20080;-80
2023/06/05 12:04:39;;;;;;;10.07;4.78;;;;;;;;;;6180527;23;20441;-81
2023/06/05 12:07:04;;;;;;;9.45;4.55;;;;;;;;;;6183843;23;20005;-84
2023/06/05 12:09:30;;;;;;;6.85;4.00;;;;;;;;;;6184146;23;20001;-81
2023/06/05 12:12:08;;;;;;;6.22;4.20;;;;;;;;;;6182080;23;20005;-80
2023/06/05 12:14:34;;;;;;;7.60;4.57;;;;;;;;;;6181540;23;20447;-82
2023/06/05 12:16:59;;;;;;;6.90;4.50;;;;;;;;;;6183483;23;20086;-81
2023/06/05 12:19:25;;;;;;;7.32;4.78;;;;;;;;;;6157577;23;20004;-81
2023/06/05 12:21:52;;;;;;;8.25;4.35;;;;;;;;;;6157273;23;20440;-82
2023/06/05 12:24:25;;;;;;;12.20;6.32;;;;;;;;;;6157609;23;20028;-82
2023/06/05 12:26:58;;;;;;;7.93;4.57;;;;;;;;;;6181113;23;20009;-81
2023/06/05 12:29:26;;;;;;;7.00;4.40;;;;;;;;;;6156705;23;20408;-82
2023/06/05 12:31:51;;;;;;;11.57;4.72;;;;;;;;;;6180332;23;20005;-82
2023/06/05 12:34:17;;;;;;;8.45;4.68;;;;;;;;;;6156827;23;20004;-82
2023/06/05 12:36:43;;;;;;;8.32;4.68;;;;;;;;;;6183949;23;20001;-81
2023/06/05 12:39:12;;;;;;;6.85;4.90;;;;;;;;;;6156025;23;20001;-82
2023/06/05 12:41:39;;;;;;;15.60;5.15;;;;;;;;;;6155135;23;20005;-82
2023/06/05 12:44:06;;;;;;;7.05;4.57;;;;;;;;;;6181619;23;20417;-82
2023/06/05 12:46:32;;;;;;;6.18;4.53;;;;;;;;;;6180189;23;20006;-82
2023/06/05 12:49:00;;;;;;;6.60;4.60;;;;;;;;;;6180769;23;19997;-81
2023/06/05 12:51:27;;;;;;;8.15;4.93;;;;;;;;;;6155356;23;20084;-82
2023/06/05 12:53:55;;;;;;;6.90;4.78;;;;;;;;;;6182138;23;20000;-82
2023/06/05 12:56:26;;;;;;;8.60;4.82;;;;;;;;;;6156740;23;20127;-82
2023/06/05 12:58:56;;;;;;;12.05;5.03;;;;;;;;;;6181828;23;20083;-82
2023/06/05 13:01:22;;;;;;;7.60;5.10;;;;;;;;;;6156884;23;20009;-82
2023/06/05 13:03:48;;;;;;;17.48;4.95;;;;;;;;;;6157036;23;20011;-82
2023/06/05 13:06:14;;;;;;;7.70;4.55;;;;;;;;;;6156905;23;20087;-82
2023/06/05 13:08:39;;;;;;;9.63;4.50;;;;;;;;;;6156247;23;20421;-82
2023/06/05 13:11:05;;;;;;;8.45;4.70;;;;;;;;;;6183180;23;20001;-81
2023/06/05 13:13:30;;;;;;;9.95;4.50;;;;;;;;;;6181058;23;20009;-82
2023/06/05 13:15:55;;;;;;;8.77;4.57;;;;;;;;;;6156209;23;20005;-81
2023/06/05 13:18:21;;;;;;;7.60;4.75;;;;;;;;;;6182228;23;20087;-82
2023/06/05 13:20:46;;;;;;;8.43;4.55;;;;;;;;;;6181442;23;20008;-82
2023/06/05 13:23:12;;;;;;;9.23;5.05;;;;;;;;;;6181839;23;20008;-83
2023/06/05 13:25:39;;;;;;;7.38;4.72;;;;;;;;;;6183369;23;20082;-81
2023/06/05 13:28:06;;;;;;;7.50;4.70;;;;;;;;;;6183028;23;20348;-82
2023/06/05 13:30:32;;;;;;;13.77;5.00;;;;;;;;;;6182592;23;20031;-82
2023/06/05 13:32:57;;;;;;;7.68;4.78;;;;;;;;;;6183752;23;20379;-84
2023/06/05 13:35:22;;;;;;;8.32;4.43;;;;;;;;;;6156903;23;20005;-81
2023/06/05 13:37:51;;;;;;;8.77;4.43;;;;;;;;;;6183185;23;20039;-82
2023/06/05 13:40:17;;;;;;;6.13;4.65;;;;;;;;;;6183029;23;20008;-84
2023/06/05 13:42:43;;;;;;;6.70;4.57;;;;;;;;;;6132111;23;20009;-83
2023/06/05 13:45:08;;;;;;;7.05;4.53;;;;;;;;;;6156413;23;20387;-81
2023/06/05 13:47:34;;;;;;;7.50;5.18;;;;;;;;;;6181460;23;20063;-82
2023/06/05 13:50:00;;;;;;;9.23;4.97;;;;;;;;;;6183543;23;20091;-81
2023/06/05 13:52:25;;;;;;;8.68;4.50;;;;;;;;;;6181484;23;20005;-82
2023/06/05 13:54:51;;;;;;;10.18;5.03;;;;;;;;;;6181333;23;20008;-82
2023/06/05 13:57:17;;;;;;;5.72;4.65;;;;;;;;;;6181367;23;20009;-82
2023/06/05 13:59:43;;;;;;;11.25;5.90;;;;;;;;;;6181616;23;20001;-80
2023/06/05 14:02:10;;;;;;;12.27;4.90;;;;;;;;;;6181792;23;20023;-80
2023/06/05 14:04:35;;;;;;;8.35;5.07;;;;;;;;;;6181624;23;20008;-79
2023/06/05 14:07:01;;;;;;;6.93;4.65;;;;;;;;;;6181460;23;20356;-81
2023/06/05 14:09:27;;;;;;;7.22;4.80;;;;;;;;;;6157004;23;20317;-79
2023/06/05 14:11:52;;;;;;;6.25;4.78;;;;;;;;;;6182977;23;20019;-80
2023/06/05 14:14:18;;;;;;;9.82;4.78;;;;;;;;;;6181095;23;20144;-79
2023/06/05 14:16:44;;;;;;;8.77;5.03;;;;;;;;;;6179058;23;20455;-80
2023/06/05 14:19:09;;;;;;;8.27;4.90;;;;;;;;;;6157369;23;20021;-80
2023/06/05 14:21:35;;;;;;;6.95;5.20;;;;;;;;;;6184583;23;20005;-80
2023/06/05 14:24:00;;;;;;;10.45;4.93;;;;;;;;;;6158515;23;20338;-80
2023/06/05 14:26:26;;;;;;;11.68;5.00;;;;;;;;;;6185056;23;20121;-80
2023/06/05 14:28:52;;;;;;;8.70;5.25;;;;;;;;;;6184525;23;20001;-81
2023/06/05 14:31:17;;;;;;;12.90;4.95;;;;;;;;;;6185004;23;20013;-80
2023/06/05 14:33:42;;;;;;;9.05;4.80;;;;;;;;;;6183074;23;20396;-80
2023/06/05 14:36:08;;;;;;;6.30;4.43;;;;;;;;;;6183451;23;20008;-79
2023/06/05 14:38:34;;;;;;;10.65;4.78;;;;;;;;;;6183100;23;20001;-80